Time;durP1;ratioP1;P1;durP2;ratioP2;P2;SDS_P1;SDS_P2;PMS_P1;PMS_P2;Temp;Humidity;BMP_temperature;BMP_pressure;BME280_temperature;BME280_humidity;BME280_pressure;Samples;Min_cycle;Max_cycle;Signal;HPM_P1;HPM_P2
2024/04/03 00:02:51;;;;;;;3.73;2.50;;;7.50;99.90;;;8.22;82.05;97472.75;10335989;28;20317;-68
2024/04/03 00:07:54;;;;;;;3.03;2.30;;;7.50;99.90;;;8.27;82.09;97465.38;10354478;28;20321;-67
2024/04/03 00:12:57;;;;;;;3.70;2.10;;;7.40;99.90;;;7.98;81.79;97467.06;10340661;28;20781;-67
2024/04/03 00:17:59;;;;;;;3.30;2.20;;;7.20;99.90;;;7.93;82.33;97458.28;10338199;28;20321;-67
2024/04/03 00:23:01;;;;;;;2.27;1.77;;;7.10;99.90;;;7.81;82.96;97462.59;10336671;28;20305;-70
2024/04/03 00:28:07;;;;;;;2.80;1.80;;;7.00;99.90;;;7.76;83.58;97443.66;10338570;28;20689;-68
2024/04/03 00:33:09;;;;;;;2.37;2.10;;;6.90;99.90;;;7.39;84.13;97432.09;10338069;28;20321;-69
2024/04/03 00:38:11;;;;;;;3.17;2.03;;;6.60;99.90;;;7.48;84.29;97438.53;10338893;28;20312;-68
2024/04/03 00:43:15;;;;;;;2.87;2.47;;;6.70;99.90;;;7.33;84.47;97441.03;10341995;28;20318;-69
2024/04/03 00:48:17;;;;;;;3.47;2.33;;;6.60;99.90;;;7.38;84.62;97440.53;10342841;28;20316;-67
2024/04/03 00:53:20;;;;;;;2.30;2.10;;;6.70;99.90;;;7.35;85.59;97435.22;10343166;28;20269;-67
2024/04/03 00:58:24;;;;;;;4.13;2.80;;;6.60;99.90;;;7.41;86.82;97424.56;10336472;28;20989;-68
2024/04/03 01:03:26;;;;;;;5.63;3.20;;;6.70;99.90;;;7.44;86.63;97419.69;10339064;28;20300;-67
2024/04/03 01:08:28;;;;;;;3.83;2.73;;;6.70;99.90;;;7.54;86.39;97406.75;10354211;28;20313;-68
2024/04/03 01:13:32;;;;;;;3.43;3.10;;;6.80;99.90;;;7.46;85.22;97390.13;10332553;28;20794;-67
2024/04/03 01:18:34;;;;;;;3.30;3.00;;;6.80;99.90;;;7.52;84.97;97379.44;10330172;28;20325;-67
2024/04/03 01:23:37;;;;;;;4.37;3.10;;;6.80;99.90;;;7.47;84.64;97376.66;10338634;28;20332;-67
2024/04/03 01:28:40;;;;;;;4.17;3.03;;;6.70;99.90;;;7.43;84.91;97374.69;10339213;28;20361;-67
2024/04/03 01:33:42;;;;;;;3.73;3.43;;;6.70;99.90;;;7.37;85.16;97376.84;10338179;28;20344;-69
2024/04/03 01:38:45;;;;;;;4.93;3.53;;;6.60;99.90;;;7.32;85.00;97365.53;10349623;28;20785;-67
2024/04/03 01:43:49;;;;;;;3.60;3.30;;;6.60;99.90;;;7.18;85.19;97354.50;10349895;28;20316;-68
2024/04/03 01:48:51;;;;;;;3.60;2.80;;;6.50;99.90;;;7.09;85.85;97349.72;10335762;28;20325;-67
2024/04/03 01:53:53;;;;;;;4.57;3.20;;;6.40;99.90;;;7.04;86.80;97353.69;10338252;28;20313;-68
2024/04/03 01:58:56;;;;;;;3.10;2.87;;;6.30;99.90;;;6.93;87.50;97359.75;10335638;28;20670;-67
2024/04/03 02:03:58;;;;;;;3.07;2.77;;;6.20;99.90;;;6.95;87.72;97353.06;10345016;28;20308;-67
2024/04/03 02:09:01;;;;;;;3.40;2.57;;;6.10;99.90;;;6.86;86.77;97342.34;10359663;28;20773;-67
2024/04/03 02:14:06;;;;;;;3.63;2.90;;;6.10;99.90;;;6.86;88.12;97348.28;10341125;28;21056;-67
2024/04/03 02:19:08;;;;;;;3.13;2.87;;;6.10;99.90;;;6.85;87.68;97345.69;10347916;28;20276;-66
2024/04/03 02:24:10;;;;;;;3.40;3.10;;;6.10;99.90;;;6.85;89.45;97344.00;10344420;28;20325;-67
2024/04/03 02:29:14;;;;;;;3.90;2.90;;;6.10;99.90;;;6.91;89.66;97344.38;10346631;28;20753;-69
2024/04/03 02:34:18;;;;;;;3.73;2.97;;;6.10;99.90;;;6.83;90.06;97344.69;10342944;28;20317;-68
2024/04/03 02:39:20;;;;;;;2.77;2.57;;;6.00;99.90;;;6.69;89.72;97337.06;10340318;28;20325;-67
2024/04/03 02:44:24;;;;;;;3.70;1.90;;;5.90;99.90;;;6.61;89.10;97333.19;10356141;28;20316;-67
2024/04/03 02:49:26;;;;;;;5.43;2.80;;;5.90;99.90;;;6.66;90.88;97325.84;10358194;28;20344;-67
2024/04/03 02:54:28;;;;;;;3.03;2.67;;;6.00;99.90;;;6.74;90.26;97325.56;10342926;28;20326;-67
2024/04/03 02:59:32;;;;;;;4.77;2.83;;;5.90;99.90;;;6.66;90.73;97316.56;10346925;28;20687;-66
2024/04/03 03:04:42;;;;;;;4.50;2.67;;;5.90;99.90;;;6.73;90.03;97315.31;10343121;28;20333;-66
2024/04/03 03:09:44;;;;;;;3.30;3.03;;;5.90;99.90;;;6.64;90.16;97292.75;10341157;28;20356;-69
2024/04/03 03:14:48;;;;;;;3.43;2.60;;;5.90;99.90;;;6.79;90.71;97281.81;10358980;28;20308;-68
2024/04/03 03:19:50;;;;;;;2.73;2.43;;;6.00;99.90;;;6.80;91.57;97270.84;10340341;28;20345;-66
2024/04/03 03:24:52;;;;;;;3.00;2.60;;;6.00;99.90;;;6.80;90.17;97278.47;10355710;28;20322;-66
2024/04/03 03:29:55;;;;;;;4.13;2.70;;;6.00;99.90;;;6.68;89.97;97279.47;10361080;28;20261;-66
2024/04/03 03:34:57;;;;;;;3.03;2.73;;;5.90;99.90;;;6.88;88.94;97259.50;10344675;28;20257;-67
2024/04/03 03:40:01;;;;;;;5.97;2.80;;;6.10;99.90;;;6.91;90.13;97259.69;10343462;28;20813;-67
2024/04/03 03:45:05;;;;;;;3.20;2.90;;;6.20;99.90;;;6.89;91.00;97246.00;10344092;28;20968;-68
2024/04/03 03:55:28;;;;;;;3.33;2.97;;;6.20;99.90;;;7.02;89.89;97237.50;10334001;28;20990;-68
2024/04/03 04:00:32;;;;;;;4.07;2.40;;;6.30;99.90;;;7.07;90.35;97228.44;10347462;28;20317;-68
2024/04/03 04:05:35;;;;;;;3.80;2.60;;;6.30;99.90;;;7.06;89.67;97226.72;10331981;28;20679;-70
2024/04/03 04:10:37;;;;;;;3.23;2.77;;;6.30;99.90;;;6.97;88.33;97216.88;10320008;28;20337;-67
2024/04/03 04:15:41;;;;;;;3.20;2.63;;;6.20;99.90;;;6.92;89.59;97218.25;10400556;22;20316;-67
2024/04/03 04:20:43;;;;;;;2.87;2.53;;;6.20;99.90;;;7.00;90.54;97217.06;10407644;28;20328;-67
2024/04/03 04:25:55;;;;;;;2.60;2.43;;;6.30;99.90;;;7.09;88.61;97217.59;10413765;28;20319;-67
2024/04/03 04:31:00;;;;;;;3.07;2.77;;;6.30;99.90;;;7.07;89.08;97219.19;10414026;28;20225;-67
2024/04/03 04:36:02;;;;;;;3.17;2.60;;;6.30;99.90;;;7.13;89.25;97214.47;10412668;28;20233;-67
2024/04/03 04:41:04;;;;;;;3.70;3.40;;;6.40;99.90;;;7.07;88.38;97226.81;10414075;28;21718;-67
2024/04/03 04:46:08;;;;;;;4.50;3.17;;;6.30;99.90;;;7.13;89.20;97224.63;10432163;28;20336;-68
2024/04/03 04:51:10;;;;;;;3.60;3.17;;;6.30;99.90;;;7.08;88.94;97214.97;10414574;28;20328;-67
2024/04/03 04:56:12;;;;;;;3.70;3.30;;;6.30;99.90;;;7.00;88.46;97217.94;10414847;28;20325;-67
2024/04/03 05:01:16;;;;;;;3.50;3.20;;;6.30;99.90;;;7.09;88.95;97214.19;10419269;28;20347;-67
2024/04/03 05:06:19;;;;;;;3.70;3.17;;;6.40;99.90;;;7.00;88.84;97214.50;10425481;28;20231;-67
2024/04/03 05:11:21;;;;;;;5.03;3.30;;;6.30;99.90;;;7.05;88.85;97215.66;10432252;28;20327;-67
2024/04/03 05:16:24;;;;;;;3.40;3.10;;;6.30;99.90;;;7.09;88.33;97220.13;10415041;28;20320;-67
2024/04/03 05:21:29;;;;;;;3.43;3.10;;;6.40;99.90;;;7.10;88.72;97215.97;10415742;28;20311;-67
2024/04/03 05:26:31;;;;;;;4.40;3.20;;;6.40;99.90;;;7.11;88.82;97203.34;10432082;28;20231;-67
2024/04/03 05:31:36;;;;;;;2.87;2.37;;;6.40;99.90;;;7.21;88.58;97203.09;10414041;28;20316;-67
2024/04/03 05:36:38;;;;;;;3.70;3.40;;;6.50;99.90;;;7.15;88.16;97199.31;10434356;28;20620;-66
2024/04/03 05:41:40;;;;;;;3.63;3.33;;;6.50;99.90;;;7.26;88.27;97210.09;10425857;28;20333;-68
2024/04/03 05:46:43;;;;;;;4.17;3.20;;;6.50;99.90;;;7.36;89.51;97213.28;10438728;28;20301;-67
2024/04/03 05:51:46;;;;;;;3.87;3.57;;;6.60;99.90;;;7.51;88.66;97217.50;10420186;28;20724;-67
2024/04/03 05:56:48;;;;;;;5.03;3.60;;;6.70;99.90;;;7.57;89.90;97223.81;10422245;28;20329;-68
2024/04/03 06:01:51;;;;;;;3.83;3.40;;;6.80;99.90;;;7.62;88.97;97219.88;10417808;28;20309;-67
2024/04/03 06:06:54;;;;;;;4.20;3.63;;;6.90;99.90;;;7.89;89.25;97218.03;10417319;28;20236;-67
2024/04/03 06:11:57;;;;;;;3.60;3.30;;;7.10;99.90;;;8.07;88.90;97223.31;10421984;28;20327;-67
2024/04/03 06:17:00;;;;;;;4.20;3.30;;;7.20;99.90;;;8.30;86.53;97232.22;10418402;28;20329;-68
2024/04/03 06:22:02;;;;;;;4.57;3.43;;;7.40;99.90;;;8.32;85.90;97239.94;10421097;28;20756;-67
2024/04/03 06:27:05;;;;;;;4.07;3.40;;;7.30;99.90;;;8.26;86.87;97245.56;10424476;28;20315;-68
2024/04/03 06:32:09;;;;;;;4.20;3.53;;;7.30;99.90;;;8.27;87.78;97228.59;10408189;28;20428;-68
2024/04/03 06:37:11;;;;;;;3.97;3.50;;;7.40;99.90;;;8.42;87.59;97249.88;10412225;28;20311;-68
2024/04/03 06:42:13;;;;;;;4.40;4.00;;;7.50;99.90;;;8.49;86.99;97251.09;10418655;28;20324;-67
2024/04/03 06:47:16;;;;;;;3.67;3.30;;;7.60;99.90;;;8.50;86.73;97243.53;10434234;28;20891;-67
2024/04/03 06:52:18;;;;;;;4.40;4.00;;;7.60;99.90;;;8.59;87.18;97255.03;10411697;28;20901;-68
2024/04/03 06:57:22;;;;;;;5.63;3.80;;;7.70;99.90;;;8.68;86.36;97255.53;10421902;28;20304;-68
2024/04/03 07:02:25;;;;;;;4.97;4.03;;;7.70;99.90;;;8.71;86.86;97259.13;10441836;28;20895;-70
2024/04/03 07:07:27;;;;;;;5.03;4.13;;;7.70;99.90;;;8.38;90.16;97255.53;10443246;28;20312;-68
2024/04/03 07:12:29;;;;;;;5.17;4.30;;;7.60;99.90;;;8.43;92.23;97254.16;10433990;28;20308;-68
2024/04/03 07:17:33;;;;;;;4.10;3.67;;;7.80;99.90;;;8.70;93.84;97252.28;10436155;28;20315;-68
2024/04/03 07:22:35;;;;;;;4.40;3.83;;;8.10;99.90;;;9.06;94.86;97256.69;10430727;28;20280;-68
2024/04/03 07:27:44;;;;;;;4.87;4.40;;;8.50;99.90;;;9.48;94.32;97292.09;10434657;28;20324;-66
2024/04/03 07:32:48;;;;;;;5.77;3.77;;;8.80;99.90;;;9.72;93.06;97286.50;10452679;28;20335;-67
2024/04/03 07:37:50;;;;;;;4.33;3.90;;;9.10;99.90;;;9.83;93.71;97290.47;10434304;28;20244;-67
2024/04/03 07:42:52;;;;;;;4.80;4.30;;;9.20;99.90;;;10.02;92.44;97315.25;10442987;28;20315;-67
2024/04/03 07:47:57;;;;;;;5.65;4.15;;;9.20;99.90;;;9.97;91.44;97320.94;10426717;28;20259;-65
2024/04/03 07:52:59;;;;;;;5.78;4.15;;;9.10;99.90;;;9.87;93.60;97323.03;10418538;28;20307;-67
2024/04/03 07:58:02;;;;;;;5.93;3.83;;;9.10;99.90;;;9.83;94.28;97330.44;10416888;28;20311;-65
2024/04/03 08:03:05;;;;;;;3.95;3.63;;;9.10;99.90;;;9.89;94.38;97336.72;10416023;28;20303;-64
2024/04/03 08:08:07;;;;;;;4.53;4.13;;;9.20;99.90;;;9.91;96.13;97330.03;10417335;28;20311;-65
2024/04/03 08:13:09;;;;;;;5.18;3.60;;;9.40;99.90;;;10.20;94.70;97328.06;10423067;28;20705;-66
2024/04/03 08:18:13;;;;;;;31.13;17.85;;;9.60;99.90;;;10.41;92.35;97314.63;10436142;28;20304;-67
2024/04/03 08:23:15;;;;;;;31.08;15.88;;;9.70;99.90;;;10.49;91.46;97316.75;10414996;28;20672;-68
2024/04/03 08:28:17;;;;;;;12.18;7.35;;;9.90;99.90;;;10.74;89.41;97307.72;10415051;28;20233;-67
2024/04/03 08:33:21;;;;;;;7.50;5.05;;;10.20;99.90;;;11.17;85.56;97300.34;10414409;28;20363;-67
2024/04/03 08:38:23;;;;;;;7.20;4.97;;;10.50;99.90;;;11.55;84.48;97300.31;10424077;28;20299;-67
2024/04/03 08:43:25;;;;;;;6.20;4.47;;;10.90;99.90;;;11.66;84.30;97299.97;10419736;28;20347;-67
2024/04/03 08:48:29;;;;;;;3.50;3.20;;;11.00;99.90;;;11.71;83.72;97290.81;10415064;28;20348;-68
2024/04/03 08:53:32;;;;;;;3.30;2.97;;;11.10;99.90;;;11.87;79.05;97286.34;10427638;28;20303;-68
2024/04/03 08:58:35;;;;;;;3.50;3.20;;;11.20;99.90;;;11.87;79.24;97281.25;10423497;28;20316;-67
2024/04/03 09:03:39;;;;;;;3.38;3.03;;;11.20;99.90;;;12.20;78.94;97278.34;10426406;28;20655;-67
2024/04/03 09:08:42;;;;;;;2.75;2.55;;;11.50;99.90;;;12.80;75.88;97271.38;10411380;28;21190;-67
2024/04/03 09:13:54;;;;;;;3.20;2.00;;;12.20;99.90;;;13.02;74.11;97255.97;10431679;28;20263;-67
2024/04/03 09:19:10;;;;;;;3.50;1.70;;;12.30;99.90;;;13.29;68.10;97263.84;10411637;28;20303;-67
2024/04/03 09:24:12;;;;;;;2.20;2.00;;;12.70;99.90;;;13.65;66.84;97252.25;10412341;28;20320;-68
2024/04/03 09:29:17;;;;;;;2.03;1.83;;;12.90;99.90;;;13.63;67.02;97248.78;10426479;28;20264;-67
2024/04/03 09:34:21;;;;;;;2.63;1.60;;;12.90;99.90;;;14.03;60.46;97235.59;10425746;28;20535;-68
2024/04/03 09:39:24;;;;;;;2.15;1.40;;;13.30;99.90;;;14.25;61.97;97226.91;10413185;28;20368;-67
2024/04/03 09:45:38;;;;;;;3.20;1.40;;;13.50;99.90;;;14.93;57.45;97221.31;10415015;28;20324;-67
2024/04/03 09:50:43;;;;;;;2.65;1.75;;;14.00;99.90;;;14.94;55.61;97220.50;10427547;28;20267;-67
2024/04/03 09:55:49;;;;;;;1.48;1.38;;;14.00;99.90;;;15.10;56.83;97204.66;10419467;28;20350;-67
2024/04/03 10:00:53;;;;;;;1.90;1.20;;;14.20;99.90;;;15.53;55.02;97200.69;10462987;28;20244;-67
2024/04/03 10:06:02;;;;;;;1.55;1.45;;;14.80;99.90;;;16.26;53.15;97187.97;10442028;28;20335;-67
2024/04/03 10:11:08;;;;;;;2.28;1.50;;;15.50;99.90;;;16.60;52.09;97184.47;10431183;28;20914;-67
2024/04/03 10:16:13;;;;;;;1.33;1.20;;;15.80;99.40;;;17.19;48.54;97179.72;10427307;22;20767;-68
2024/04/03 10:21:18;;;;;;;1.13;1.10;;;16.50;95.30;;;17.16;47.16;97174.50;10412730;28;20993;-68
2024/04/03 10:26:21;;;;;;;1.35;1.08;;;16.40;93.60;;;17.30;45.83;97170.47;10418574;28;20763;-68
2024/04/03 10:31:23;;;;;;;1.33;1.15;;;16.60;92.80;;;17.08;44.18;97164.03;10414116;28;20233;-68
2024/04/03 10:36:27;;;;;;;1.33;1.17;;;16.40;91.60;;;16.86;46.19;97156.69;10417461;28;20497;-68
2024/04/03 10:41:29;;;;;;;2.90;1.77;;;15.90;93.10;;;17.11;44.93;97151.19;10424890;28;20258;-68
2024/04/03 10:46:32;;;;;;;1.80;1.30;;;16.20;92.20;;;17.33;44.93;97149.84;10444899;28;20255;-68
2024/04/03 10:51:35;;;;;;;1.30;1.30;;;16.40;91.90;;;17.38;46.72;97152.53;10421124;28;20319;-68
2024/04/03 10:56:38;;;;;;;1.08;1.08;;;16.40;93.80;;;17.62;44.84;97140.91;10466403;28;20675;-68
2024/04/03 11:01:40;;;;;;;2.03;1.15;;;17.00;91.50;;;17.85;44.80;97141.34;10461934;28;20436;-67
2024/04/03 11:06:46;;;;;;;1.48;1.30;;;17.00;91.60;;;17.76;44.00;97142.03;10459500;28;20499;-68
2024/04/03 11:11:52;;;;;;;2.08;1.08;;;16.90;90.60;;;17.78;45.44;97148.13;10487953;28;20311;-69
2024/04/03 11:16:54;;;;;;;2.00;1.35;;;16.70;92.20;;;17.47;46.95;97157.88;10460419;28;20432;-67
2024/04/03 11:21:58;;;;;;;2.15;1.30;;;16.40;93.70;;;16.92;48.00;97167.13;10475010;28;20315;-67
2024/04/03 11:27:00;;;;;;;1.80;1.70;;;15.80;95.40;;;16.61;51.55;97184.50;10457035;28;20304;-68
2024/04/03 11:32:02;;;;;;;1.30;1.20;;;15.70;98.10;;;16.14;54.94;97194.59;10457794;28;20303;-73
2024/04/03 11:37:06;;;;;;;1.60;1.15;;;15.50;99.90;;;15.39;60.27;97207.16;10458433;28;20255;-70
2024/04/03 11:42:11;;;;;;;1.85;1.50;;;14.70;99.90;;;15.09;61.58;97215.78;10480795;28;20271;-69
2024/04/03 11:47:14;;;;;;;1.38;1.27;;;14.30;99.90;;;14.80;64.31;97218.38;10464761;28;20315;-69
2024/04/03 11:52:18;;;;;;;2.42;1.65;;;14.20;99.90;;;14.60;66.81;97224.63;10423429;28;20355;-69
2024/04/03 11:57:20;;;;;;;1.95;1.40;;;13.80;99.90;;;14.63;68.46;97222.13;10454860;28;20317;-69
2024/04/03 12:02:22;;;;;;;1.48;1.38;;;13.80;99.90;;;14.62;69.43;97231.56;10436745;28;20315;-70
2024/04/03 12:07:25;;;;;;;1.70;1.60;;;13.70;99.90;;;14.40;71.53;97222.25;10468341;28;20311;-70
2024/04/03 12:12:28;;;;;;;1.50;1.40;;;13.40;99.90;;;14.27;71.62;97220.09;10447219;28;20410;-70
2024/04/03 12:17:32;;;;;;;1.45;1.40;;;13.40;99.90;;;14.28;70.81;97211.59;10472344;28;20801;-69
2024/04/03 12:22:36;;;;;;;1.50;1.40;;;13.30;99.90;;;14.51;70.13;97211.44;10457549;28;20303;-69
2024/04/03 12:27:38;;;;;;;1.75;1.45;;;13.40;99.90;;;14.53;68.83;97204.66;10462951;28;20252;-70
2024/04/03 12:32:40;;;;;;;1.38;1.38;;;13.60;99.90;;;14.54;66.75;97203.84;10454290;28;20300;-70
2024/04/03 12:37:44;;;;;;;1.23;1.20;;;13.60;99.90;;;14.40;70.50;97211.09;10476992;28;20318;-69
2024/04/03 12:42:46;;;;;;;1.13;1.08;;;13.50;99.90;;;14.22;71.94;97211.38;10464868;28;20335;-70
2024/04/03 12:47:49;;;;;;;1.45;1.35;;;13.40;99.90;;;13.85;75.22;97225.59;10455592;28;20667;-69
2024/04/03 12:52:53;;;;;;;2.00;1.90;;;13.00;99.90;;;13.70;76.84;97223.34;10454104;28;20893;-68
2024/04/03 12:57:55;;;;;;;1.50;1.40;;;12.90;99.90;;;13.69;77.29;97225.88;10464933;28;20282;-68
2024/04/03 13:02:58;;;;;;;2.63;1.30;;;12.80;99.90;;;13.40;80.66;97230.00;10472732;28;20307;-69
2024/04/03 13:08:01;;;;;;;1.63;1.52;;;12.60;99.90;;;13.26;85.07;97232.06;10455221;28;20787;-67
2024/04/03 13:13:04;;;;;;;1.30;1.30;;;12.50;99.90;;;13.30;84.03;97233.91;10468908;28;20784;-68
2024/04/03 13:18:06;;;;;;;1.60;1.50;;;12.40;99.90;;;12.93;85.91;97235.09;10472697;28;20347;-70
2024/04/03 13:23:09;;;;;;;1.35;1.23;;;12.20;99.90;;;12.63;88.80;97232.25;10458029;28;20307;-69
2024/04/03 13:28:12;;;;;;;1.67;1.50;;;12.00;99.90;;;12.48;91.30;97237.66;10457450;28;20645;-69
2024/04/03 13:33:16;;;;;;;1.95;1.70;;;11.90;99.90;;;12.45;91.69;97236.63;10472862;28;20279;-69
2024/04/03 13:38:20;;;;;;;2.65;1.80;;;11.90;99.90;;;12.36;93.28;97238.03;10488588;28;20260;-69
2024/04/03 13:43:22;;;;;;;2.08;1.52;;;11.80;99.90;;;12.36;94.65;97238.03;10467513;28;20654;-68
2024/04/03 13:48:24;;;;;;;2.17;1.60;;;11.80;99.90;;;12.31;94.33;97242.09;10458655;28;20311;-67
2024/04/03 13:53:28;;;;;;;1.75;1.40;;;11.70;99.90;;;12.30;97.66;97242.03;10466068;28;20683;-67
2024/04/03 13:58:30;;;;;;;1.60;1.50;;;11.70;99.90;;;12.24;99.95;97249.47;10470102;28;20307;-68
2024/04/03 14:03:33;;;;;;;2.35;1.83;;;11.70;99.90;;;12.13;100.00;97249.03;10465281;28;20323;-67
2024/04/03 14:08:37;;;;;;;3.65;2.08;;;11.50;99.90;;;12.09;100.00;97259.97;10489792;28;20303;-69
2024/04/03 14:13:39;;;;;;;2.40;1.75;;;11.50;99.90;;;12.03;100.00;97255.47;10481342;28;20331;-69
2024/04/03 14:18:42;;;;;;;2.17;1.52;;;11.40;99.90;;;11.91;100.00;97257.53;10459714;28;20662;-68
2024/04/03 14:23:45;;;;;;;1.60;1.50;;;11.40;99.90;;;11.81;100.00;97266.47;10475695;28;20344;-68
2024/04/03 14:28:48;;;;;;;1.70;1.50;;;11.20;99.90;;;11.77;100.00;97263.72;10471107;28;20259;-67
2024/04/03 14:33:50;;;;;;;1.75;1.65;;;11.20;99.90;;;11.79;100.00;97262.97;10481517;28;20343;-69
2024/04/03 14:38:54;;;;;;;2.35;1.75;;;11.20;99.90;;;11.68;100.00;97269.31;10478412;28;20841;-68
2024/04/03 14:43:56;;;;;;;2.17;1.90;;;11.10;99.90;;;11.65;100.00;97272.63;10461809;28;20307;-68
2024/04/03 14:48:58;;;;;;;2.40;2.05;;;11.00;99.90;;;11.55;100.00;97278.13;10468256;28;20311;-69
2024/04/03 14:54:02;;;;;;;1.55;1.45;;;11.00;99.90;;;11.56;100.00;97279.91;10462572;28;20324;-68
2024/04/03 14:59:05;;;;;;;2.50;2.30;;;11.00;99.90;;;11.63;100.00;97281.91;10460983;28;20311;-67
2024/04/03 15:04:07;;;;;;;1.80;1.70;;;11.00;99.90;;;11.57;100.00;97286.75;10457657;28;20365;-68
2024/04/03 15:09:12;;;;;;;1.90;1.80;;;11.00;99.90;;;11.59;100.00;97289.38;10461407;28;20327;-68
2024/04/03 15:14:14;;;;;;;1.92;1.70;;;11.00;99.90;;;11.62;100.00;97286.97;10469541;28;20676;-67
2024/04/03 15:19:17;;;;;;;2.20;2.00;;;11.00;99.90;;;11.58;100.00;97296.19;10476235;28;20266;-67
2024/04/03 15:24:20;;;;;;;2.10;1.90;;;11.00;99.90;;;11.64;100.00;97283.66;10489358;28;20253;-67
2024/04/03 15:29:23;;;;;;;2.90;2.70;;;11.10;99.90;;;11.69;100.00;97287.28;10466625;28;20677;-67
2024/04/03 15:34:25;;;;;;;2.53;2.20;;;11.10;99.90;;;11.72;100.00;97287.41;10470303;28;20335;-68
2024/04/03 15:39:28;;;;;;;1.92;1.83;;;11.10;99.90;;;11.76;100.00;97297.78;10466515;28;20255;-67
2024/04/03 15:44:31;;;;;;;2.85;2.65;;;11.10;99.90;;;11.77;100.00;97297.00;10461544;28;20299;-66
2024/04/03 15:49:34;;;;;;;2.70;2.50;;;11.10;99.90;;;11.86;100.00;97299.97;10473691;28;20345;-68
2024/04/03 15:54:38;;;;;;;2.45;2.25;;;11.20;99.90;;;11.76;100.00;97297.78;10447921;28;20858;-68
2024/04/03 15:59:40;;;;;;;2.33;1.83;;;11.10;99.90;;;11.81;100.00;97281.81;10458953;28;20770;-67
2024/04/03 16:04:43;;;;;;;1.70;1.60;;;11.10;99.90;;;11.68;100.00;97290.66;10464786;28;20501;-67
2024/04/03 16:09:46;;;;;;;1.77;1.67;;;11.10;99.90;;;11.68;100.00;97302.59;10465665;28;20693;-67
2024/04/03 16:14:48;;;;;;;2.55;2.10;;;11.00;99.90;;;11.62;100.00;97305.78;10482072;28;21497;-67
2024/04/03 16:19:51;;;;;;;1.95;1.73;;;11.00;99.90;;;11.58;100.00;97303.00;10462872;28;20319;-69
2024/04/03 16:24:54;;;;;;;2.83;2.70;;;11.00;99.90;;;11.60;100.00;97297.13;10474538;28;20426;-69
2024/04/03 16:29:57;;;;;;;2.15;1.95;;;11.00;99.90;;;11.62;100.00;97295.53;10453111;28;20224;-69
2024/04/03 16:35:00;;;;;;;2.70;2.30;;;11.00;99.90;;;11.47;100.00;97298.28;10437534;28;20635;-70
2024/04/03 16:40:08;;;;;;;1.75;1.60;;;10.90;99.90;;;11.49;100.00;97316.25;10442402;28;20233;-69
2024/04/03 16:45:10;;;;;;;1.85;1.75;;;10.90;99.90;;;11.45;100.00;97311.81;10435344;28;20247;-69
2024/04/03 16:50:13;;;;;;;2.38;2.22;;;10.90;99.90;;;11.50;100.00;97312.88;10441142;28;20220;-70
2024/04/03 16:55:17;;;;;;;1.80;1.70;;;10.90;99.90;;;11.56;100.00;97320.84;10456786;28;20341;-69
2024/04/03 17:00:19;;;;;;;2.92;1.55;;;10.90;99.90;;;11.49;100.00;97334.19;10454435;28;20311;-69
2024/04/03 17:05:22;;;;;;;2.10;2.00;;;10.90;99.90;;;11.39;100.00;97339.66;10457138;28;20315;-69
2024/04/03 17:10:25;;;;;;;2.00;1.90;;;10.90;99.90;;;11.50;100.00;97343.59;10474764;28;20303;-68
2024/04/03 17:15:27;;;;;;;3.15;2.88;;;10.90;99.90;;;11.51;100.00;97342.81;10477470;28;20311;-68
2024/04/03 17:20:30;;;;;;;2.35;2.25;;;10.90;99.90;;;11.56;100.00;97351.56;10455728;28;20300;-68
2024/04/03 17:25:33;;;;;;;2.40;2.20;;;11.00;99.90;;;11.55;100.00;97352.34;10454872;28;20314;-68
2024/04/03 17:30:35;;;;;;;2.70;2.55;;;10.90;99.90;;;11.49;100.00;97362.31;10473743;28;20332;-69
2024/04/03 17:35:40;;;;;;;2.65;2.38;;;10.90;99.90;;;11.50;100.00;97362.41;10474048;28;20274;-68
2024/04/03 17:40:43;;;;;;;2.13;1.92;;;10.80;99.90;;;11.48;100.00;97364.00;10468450;28;20361;-69
2024/04/03 17:45:45;;;;;;;3.95;3.55;;;10.80;99.90;;;11.47;100.00;97377.63;10456056;28;20311;-69
2024/04/03 17:50:48;;;;;;;5.43;4.93;;;10.80;99.90;;;11.38;100.00;97384.00;10457867;28;20311;-69
2024/04/03 17:55:54;;;;;;;5.65;5.15;;;10.80;99.90;;;11.37;100.00;97389.94;10450818;28;20323;-68
2024/04/03 18:00:56;;;;;;;6.90;6.20;;;10.70;99.90;;;11.35;100.00;97391.53;10455541;28;20311;-69
2024/04/03 18:05:59;;;;;;;7.25;6.63;;;10.70;99.90;;;11.29;100.00;97397.22;10458368;28;20316;-69
2024/04/03 18:11:05;;;;;;;5.53;5.03;;;10.60;99.90;;;11.21;100.00;97404.53;10474915;28;20824;-68
2024/04/03 18:16:09;;;;;;;4.72;4.43;;;10.50;99.90;;;11.09;100.00;97401.41;10469970;28;20771;-69
2024/04/03 18:21:11;;;;;;;6.18;5.68;;;10.50;99.90;;;11.01;100.00;97405.28;10446612;28;20616;-68
2024/04/03 18:26:15;;;;;;;4.03;3.72;;;10.40;99.90;;;10.94;100.00;97408.38;10449121;28;20236;-69
2024/04/03 18:31:17;;;;;;;5.30;4.90;;;10.20;99.90;;;10.90;100.00;97421.78;10449536;28;20452;-69
2024/04/03 18:36:20;;;;;;;5.00;4.65;;;10.20;99.90;;;10.86;100.00;97427.56;10446752;28;20315;-69
2024/04/03 18:41:23;;;;;;;4.50;4.20;;;10.20;99.90;;;10.90;100.00;97437.13;10448624;28;20786;-69
2024/04/03 18:46:26;;;;;;;3.80;3.55;;;10.20;99.90;;;10.95;100.00;97440.78;10463048;28;20775;-69
2024/04/03 18:51:28;;;;;;;5.40;4.90;;;10.20;99.90;;;11.01;100.00;97451.31;10456140;28;20246;-69
2024/04/03 18:56:32;;;;;;;5.50;5.03;;;10.30;99.90;;;10.95;100.00;97445.91;10475446;28;20307;-68
2024/04/03 19:01:35;;;;;;;3.53;3.22;;;10.30;99.90;;;10.99;100.00;97448.69;10476654;28;20685;-69
2024/04/03 19:06:38;;;;;;;4.22;3.92;;;10.40;99.90;;;10.99;100.00;97458.06;10455708;28;20421;-69
2024/04/03 19:11:42;;;;;;;7.60;7.00;;;10.40;99.90;;;11.01;100.00;97458.97;10465316;28;20700;-69
2024/04/03 19:16:45;;;;;;;6.97;6.28;;;10.40;99.90;;;10.94;100.00;97459.50;10472824;28;20321;-69
2024/04/03 19:21:47;;;;;;;5.70;5.18;;;10.30;99.90;;;11.00;100.00;97475.13;10443697;28;20628;-69
2024/04/03 19:26:51;;;;;;;5.80;5.30;;;10.30;99.90;;;10.97;100.00;97480.09;10458662;28;20220;-69
2024/04/03 19:31:53;;;;;;;5.80;5.40;;;10.30;99.90;;;10.96;100.00;97478.34;10453096;28;20340;-70
2024/04/03 19:36:56;;;;;;;5.75;4.93;;;10.30;99.90;;;10.95;100.00;97481.69;10441767;28;20230;-69
2024/04/03 19:42:00;;;;;;;4.85;4.22;;;10.40;99.90;;;10.91;100.00;97483.25;10439173;28;20650;-69
2024/04/03 19:47:02;;;;;;;4.13;3.72;;;10.30;99.90;;;10.92;100.00;97487.53;10412694;28;20229;-69
2024/04/03 19:52:05;;;;;;;3.45;3.15;;;10.30;99.90;;;10.99;100.00;97486.19;10401391;28;20228;-69
2024/04/03 19:57:09;;;;;;;3.83;2.25;;;10.40;99.90;;;10.96;100.00;97486.91;10440192;28;20246;-69
2024/04/03 20:02:11;;;;;;;9.13;6.00;;;10.40;99.90;;;10.96;100.00;97493.66;10444809;28;20311;-69
2024/04/03 20:07:14;;;;;;;11.45;7.82;;;10.30;99.90;;;10.90;100.00;97489.16;10455055;28;21704;-69
2024/04/03 20:12:17;;;;;;;7.63;5.22;;;10.30;99.90;;;10.79;100.00;97490.31;10450017;28;20232;-69
2024/04/03 20:17:19;;;;;;;4.47;4.07;;;10.20;99.90;;;10.66;100.00;97483.69;10438388;28;20232;-69
2024/04/03 20:22:22;;;;;;;3.92;3.53;;;10.10;99.90;;;10.78;100.00;97485.97;10450783;28;20749;-69
2024/04/03 20:27:25;;;;;;;6.00;3.33;;;10.10;99.90;;;10.76;100.00;97485.91;10439794;28;20239;-68
2024/04/03 20:32:28;;;;;;;4.22;2.85;;;10.20;99.90;;;10.83;100.00;97493.06;10462015;28;20220;-69
2024/04/03 20:37:30;;;;;;;3.92;3.53;;;10.30;99.90;;;10.87;100.00;97488.13;10440110;28;20495;-69
2024/04/03 20:42:34;;;;;;;6.53;3.47;;;10.30;99.90;;;10.88;100.00;97488.19;10435431;28;20217;-69
2024/04/03 20:47:36;;;;;;;3.38;3.03;;;10.30;99.90;;;11.01;100.00;97484.56;10434237;28;20712;-69
2024/04/03 20:52:39;;;;;;;4.53;3.13;;;10.30;99.90;;;10.90;100.00;97491.72;10451200;28;20227;-68
2024/04/03 20:57:45;;;;;;;4.47;3.15;;;10.30;99.90;;;10.82;100.00;97490.47;10435510;28;20234;-69
2024/04/03 21:02:47;;;;;;;3.10;2.40;;;10.30;99.90;;;10.80;100.00;97498.03;10437230;28;20273;-69
2024/04/03 21:07:50;;;;;;;4.20;3.08;;;10.30;99.90;;;10.77;100.00;97495.31;10440717;28;20914;-69
2024/04/03 21:12:55;;;;;;;4.72;2.60;;;10.30;99.90;;;10.81;100.00;97499.78;10439050;28;20636;-69